SBUL/UDI METAR and TAF weather

Enter ICAO airport designator
Station Type Date Time Source
SBUL METAR 2019/10/23 03:00 UTC NOAA

SBUL 230300Z 16005KT CAVOK 20/16 Q1016


Station Type Date Time Source
SBUL Decoded METAR 2019/10/23 03:00 UTC NOAA

Uberlandia , Brazil (SBUL) 18-53S 048-14W
Oct 22, 2019 - 11:00 PM EDT / 2019.10.23 0300 UTC
Wind: from the SSE (160 degrees) at 6 MPH (5 KT):0
Visibility: greater than 7 mile(s):0
Temperature: 68 F (20 C)
Dew Point: 60 F (16 C)
Relative Humidity: 77%
Pressure (altimeter): 30.00 in. Hg (1016 hPa)
ob: SBUL 230300Z 16005KT CAVOK 20/16 Q1016
cycle: 3

Station Type Date Time Source
SBUL TAF 2019/10/23 00:33 UTC NOAA

TAF SBUL 222200Z 2300/2312 19005KT CAVOK TN18/2309Z TX25/2312Z
BECMG 2303/2305 15004KT
BECMG 2308/2310 11004KT
RMK PGE

Example: see airport list